Time;durP1;ratioP1;P1;durP2;ratioP2;P2;SDS_P1;SDS_P2;PMS_P1;PMS_P2;Temp;Humidity;BMP_temperature;BMP_pressure;BME280_temperature;BME280_humidity;BME280_pressure;Samples;Min_cycle;Max_cycle;Signal;HPM_P1;HPM_P2
2024/01/05 00:01:38;;;;;;;6.50;3.40;;;12.80;99.90;;;;;;5094259;28;20036;-45
2024/01/05 00:04:04;;;;;;;7.32;3.72;;;12.80;99.90;;;;;;5094462;28;20119;-45
2024/01/05 00:06:30;;;;;;;5.78;3.53;;;12.80;99.90;;;;;;5095863;28;20052;-44
2024/01/05 00:08:56;;;;;;;7.53;3.50;;;12.80;99.90;;;;;;5094769;28;20543;-45
2024/01/05 00:11:21;;;;;;;5.65;3.17;;;12.80;99.90;;;;;;5094812;28;20024;-45
2024/01/05 00:13:48;;;;;;;7.07;3.63;;;12.80;99.90;;;;;;5092732;28;20050;-44
2024/01/05 00:16:31;;;;;;;6.72;3.60;;;12.80;99.90;;;;;;5093801;28;20141;-45
2024/01/05 00:18:57;;;;;;;5.40;3.13;;;12.80;99.90;;;;;;5094222;28;20020;-44
2024/01/05 00:21:25;;;;;;;5.70;3.20;;;12.70;99.90;;;;;;5095392;28;20058;-44
2024/01/05 00:23:52;;;;;;;5.32;2.80;;;12.70;99.90;;;;;;5094938;28;20027;-44
2024/01/05 00:26:19;;;;;;;6.53;3.55;;;12.70;99.90;;;;;;5095342;28;20036;-44
2024/01/05 00:28:46;;;;;;;5.57;3.28;;;12.70;99.90;;;;;;5094935;28;20040;-44
2024/01/05 00:31:12;;;;;;;7.43;3.30;;;12.70;99.90;;;;;;5094858;28;20398;-45
2024/01/05 00:33:39;;;;;;;5.50;3.10;;;12.70;99.90;;;;;;5094972;28;20025;-45
2024/01/05 00:36:06;;;;;;;4.97;3.25;;;12.70;99.90;;;;;;5094434;28;20359;-43
2024/01/05 00:38:32;;;;;;;4.38;2.88;;;12.70;99.90;;;;;;5093457;28;20034;-43
2024/01/05 00:40:58;;;;;;;5.63;2.95;;;12.70;99.90;;;;;;5094321;28;20082;-44
2024/01/05 00:43:23;;;;;;;4.85;2.78;;;12.60;99.90;;;;;;5093478;28;20024;-44
2024/01/05 00:45:49;;;;;;;5.88;3.05;;;12.60;99.90;;;;;;5093471;28;20020;-45
2024/01/05 00:48:14;;;;;;;5.38;3.17;;;12.60;99.90;;;;;;5094240;28;20049;-45
2024/01/05 00:50:41;;;;;;;5.68;2.80;;;12.60;99.90;;;;;;5094780;28;20449;-44
2024/01/05 00:53:06;;;;;;;4.55;2.95;;;12.60;99.90;;;;;;5093763;28;20138;-45
2024/01/05 00:55:32;;;;;;;5.15;2.72;;;12.60;99.90;;;;;;5093391;28;20048;-45
2024/01/05 00:57:59;;;;;;;3.83;2.70;;;12.60;99.90;;;;;;5094351;28;20073;-45
2024/01/05 01:00:24;;;;;;;7.93;2.60;;;12.60;99.90;;;;;;5093524;28;20020;-45
2024/01/05 01:02:51;;;;;;;4.78;2.85;;;12.50;99.90;;;;;;5093116;28;20077;-45
2024/01/05 01:05:17;;;;;;;6.25;2.72;;;12.50;99.90;;;;;;5093721;28;20040;-45
2024/01/05 01:07:43;;;;;;;4.57;2.65;;;12.50;99.90;;;;;;5093734;28;20031;-44
2024/01/05 01:10:09;;;;;;;5.38;2.78;;;12.50;99.90;;;;;;5093963;28;20024;-45
2024/01/05 01:12:35;;;;;;;5.15;2.45;;;12.50;99.90;;;;;;5094171;28;20390;-45
2024/01/05 01:15:00;;;;;;;3.45;2.22;;;12.50;99.90;;;;;;5092914;28;20024;-45
2024/01/05 01:17:26;;;;;;;5.70;3.03;;;12.50;99.90;;;;;;5093416;28;20017;-45
2024/01/05 01:19:52;;;;;;;4.95;2.53;;;12.50;99.90;;;;;;5093211;28;20424;-42
2024/01/05 01:22:18;;;;;;;4.18;2.40;;;12.50;99.90;;;;;;5094074;28;20036;-45
2024/01/05 01:24:43;;;;;;;3.78;2.50;;;12.50;99.90;;;;;;5092837;28;20061;-44
2024/01/05 01:27:09;;;;;;;5.70;2.85;;;12.50;99.90;;;;;;5093445;28;20477;-44
2024/01/05 01:29:35;;;;;;;5.00;2.42;;;12.40;99.90;;;;;;5093627;28;20027;-44
2024/01/05 01:32:00;;;;;;;4.30;2.42;;;12.40;99.90;;;;;;5092950;28;20036;-45
2024/01/05 01:34:26;;;;;;;4.53;2.35;;;12.40;99.90;;;;;;5092708;28;20401;-44
2024/01/05 01:36:53;;;;;;;5.00;2.60;;;12.50;99.90;;;;;;5093986;28;20039;-45
2024/01/05 01:39:18;;;;;;;4.80;2.28;;;12.40;99.90;;;;;;5093045;28;20027;-45
2024/01/05 01:41:44;;;;;;;4.60;2.30;;;12.40;99.90;;;;;;5092466;28;20077;-45
2024/01/05 01:44:09;;;;;;;3.88;2.20;;;12.40;99.90;;;;;;5095110;28;20398;-45
2024/01/05 01:46:36;;;;;;;5.43;2.17;;;12.40;99.90;;;;;;5093487;28;20482;-44
2024/01/05 01:49:05;;;;;;;3.75;1.98;;;12.40;99.90;;;;;;5093019;28;20031;-43
2024/01/05 01:51:32;;;;;;;2.72;1.88;;;12.40;99.90;;;;;;5092641;28;20028;-44
2024/01/05 01:54:03;;;;;;;4.63;2.50;;;12.40;99.90;;;;;;5092267;28;20027;-44
2024/01/05 01:56:30;;;;;;;3.40;2.08;;;12.40;99.90;;;;;;5093521;28;20401;-45
2024/01/05 01:58:56;;;;;;;4.38;2.53;;;12.40;99.90;;;;;;5093560;28;20028;-44
2024/01/05 02:01:21;;;;;;;3.20;2.05;;;12.40;99.90;;;;;;5091927;28;20115;-45
2024/01/05 02:03:47;;;;;;;5.88;2.08;;;12.30;99.90;;;;;;5092067;28;20111;-44
2024/01/05 02:06:13;;;;;;;2.95;1.90;;;12.30;99.90;;;;;;5091989;28;20073;-45
2024/01/05 02:08:39;;;;;;;4.40;2.08;;;12.30;99.90;;;;;;5092353;28;20074;-44
2024/01/05 02:11:05;;;;;;;4.07;2.00;;;12.30;99.90;;;;;;5091879;28;20032;-45
2024/01/05 02:13:34;;;;;;;4.15;2.13;;;12.30;99.90;;;;;;5093884;28;20059;-44
2024/01/05 02:16:00;;;;;;;3.60;1.95;;;12.30;99.90;;;;;;5092598;28;20024;-45
2024/01/05 02:18:25;;;;;;;3.80;2.10;;;12.30;99.90;;;;;;5091762;28;20393;-45
2024/01/05 02:20:51;;;;;;;4.43;2.08;;;12.30;99.90;;;;;;5091745;28;20482;-45
2024/01/05 02:23:32;;;;;;;4.75;2.17;;;12.30;99.90;;;;;;5092087;28;20024;-45
2024/01/05 02:25:59;;;;;;;3.60;1.98;;;12.30;99.90;;;;;;5091577;28;20338;-45
2024/01/05 02:28:25;;;;;;;3.47;1.92;;;12.30;99.90;;;;;;5091978;28;20145;-44
2024/01/05 02:30:54;;;;;;;3.08;1.90;;;12.30;99.90;;;;;;5093118;28;20024;-44
2024/01/05 02:33:20;;;;;;;2.83;1.90;;;12.30;99.90;;;;;;5092784;28;20020;-41
2024/01/05 02:35:45;;;;;;;2.47;1.70;;;12.30;99.90;;;;;;5091274;28;20169;-45
2024/01/05 02:38:11;;;;;;;3.88;1.98;;;12.30;99.90;;;;;;5093684;28;20612;-43
2024/01/05 02:40:36;;;;;;;3.28;1.77;;;12.30;99.90;;;;;;5092324;28;20024;-43
2024/01/05 02:43:02;;;;;;;3.00;1.55;;;12.30;99.90;;;;;;5091381;28;20466;-45
2024/01/05 02:45:28;;;;;;;3.05;1.67;;;12.20;99.90;;;;;;5091463;28;20099;-45
2024/01/05 02:47:53;;;;;;;3.75;1.80;;;12.20;99.90;;;;;;5091304;28;20501;-44
2024/01/05 02:50:20;;;;;;;4.15;1.75;;;12.20;99.90;;;;;;5091982;28;20016;-45
2024/01/05 02:52:46;;;;;;;3.08;1.63;;;12.20;99.90;;;;;;5092342;28;20028;-45
2024/01/05 02:55:12;;;;;;;3.88;1.60;;;12.20;99.90;;;;;;5092386;28;20470;-45
2024/01/05 02:57:39;;;;;;;4.13;1.65;;;12.20;99.90;;;;;;5091528;28;20061;-44
2024/01/05 03:00:05;;;;;;;4.43;1.73;;;12.20;99.90;;;;;;5091669;28;20028;-45
2024/01/05 03:02:31;;;;;;;4.75;1.73;;;12.20;99.90;;;;;;5092181;28;20024;-44
2024/01/05 03:04:57;;;;;;;3.00;1.48;;;12.20;99.90;;;;;;5092914;28;20039;-44
2024/01/05 03:07:23;;;;;;;3.67;1.77;;;12.20;99.90;;;;;;5092753;28;20070;-45
2024/01/05 03:09:49;;;;;;;4.15;1.60;;;12.20;99.90;;;;;;5091022;28;20058;-45
2024/01/05 03:12:16;;;;;;;2.13;1.50;;;12.20;99.90;;;;;;5091697;28;20028;-45
2024/01/05 03:14:41;;;;;;;3.85;1.58;;;12.20;99.90;;;;;;5091345;28;20074;-44
2024/01/05 03:17:07;;;;;;;3.33;1.58;;;12.20;99.90;;;;;;5091045;28;20534;-44
2024/01/05 03:19:33;;;;;;;4.50;2.17;;;12.20;99.90;;;;;;5092036;28;20103;-45
2024/01/05 03:21:58;;;;;;;4.32;1.70;;;12.10;99.90;;;;;;5091692;28;20028;-45
2024/01/05 03:24:24;;;;;;;4.30;1.90;;;12.10;99.90;;;;;;5090967;28;20058;-45
2024/01/05 03:26:50;;;;;;;3.70;1.58;;;12.10;99.90;;;;;;5090953;28;20028;-44
2024/01/05 03:29:15;;;;;;;3.05;1.48;;;12.20;99.90;;;;;;5090976;28;20109;-45
2024/01/05 03:31:44;;;;;;;2.85;1.40;;;12.10;99.90;;;;;;5091359;28;20028;-45
2024/01/05 03:34:12;;;;;;;3.15;1.50;;;12.10;99.90;;;;;;5092458;28;20051;-44
2024/01/05 03:36:37;;;;;;;3.17;1.50;;;12.20;99.90;;;;;;5092597;28;20088;-45
2024/01/05 03:39:03;;;;;;;2.53;1.25;;;12.10;99.90;;;;;;5092590;28;20060;-45
2024/01/05 03:41:29;;;;;;;2.35;1.30;;;12.20;99.90;;;;;;5091427;28;20043;-45
2024/01/05 03:43:55;;;;;;;3.28;1.42;;;12.10;99.90;;;;;;5092110;28;20052;-45
2024/01/05 03:46:20;;;;;;;2.45;1.35;;;12.10;99.90;;;;;;5092411;28;20071;-45
2024/01/05 03:48:46;;;;;;;3.85;1.73;;;12.10;99.90;;;;;;5095461;28;20024;-45
2024/01/05 03:51:12;;;;;;;2.30;1.23;;;12.10;99.90;;;;;;5095472;28;20048;-45
2024/01/05 03:53:37;;;;;;;3.88;1.30;;;12.10;99.90;;;;;;5095866;28;20026;-44
2024/01/05 03:56:04;;;;;;;2.25;1.20;;;12.10;99.90;;;;;;5095156;28;20381;-45
2024/01/05 03:58:30;;;;;;;2.63;1.10;;;12.10;99.90;;;;;;5094345;28;20470;-40
2024/01/05 04:00:56;;;;;;;1.80;1.08;;;12.10;99.90;;;;;;5094896;28;20021;-45
2024/01/05 04:03:21;;;;;;;3.03;1.48;;;12.10;99.90;;;;;;5095457;28;20028;-45
2024/01/05 04:05:47;;;;;;;3.28;1.52;;;12.10;99.90;;;;;;5095701;28;20130;-45
2024/01/05 04:08:13;;;;;;;1.77;1.15;;;12.10;99.90;;;;;;5097481;28;20218;-43
2024/01/05 04:10:39;;;;;;;2.28;1.05;;;12.10;99.90;;;;;;5094972;28;20475;-44
2024/01/05 04:13:05;;;;;;;2.13;1.00;;;12.10;99.90;;;;;;5094915;28;20024;-45
2024/01/05 04:15:38;;;;;;;2.00;1.25;;;12.10;99.90;;;;;;5095088;28;20024;-41
2024/01/05 04:18:04;;;;;;;2.20;1.10;;;12.10;99.90;;;;;;5094516;28;20024;-45
2024/01/05 04:20:30;;;;;;;2.95;1.10;;;12.10;99.90;;;;;;5095167;28;20490;-45
2024/01/05 04:22:56;;;;;;;2.45;1.20;;;12.10;99.90;;;;;;5094608;28;20077;-45
2024/01/05 04:25:22;;;;;;;3.35;1.23;;;12.10;99.90;;;;;;5094505;28;20070;-42
2024/01/05 04:27:47;;;;;;;2.50;1.40;;;12.10;99.90;;;;;;5094230;28;20020;-44
2024/01/05 04:30:13;;;;;;;1.85;1.05;;;12.10;99.90;;;;;;5094703;28;20024;-45
2024/01/05 04:32:39;;;;;;;2.63;1.23;;;12.00;99.90;;;;;;5094871;28;20034;-45
2024/01/05 04:35:05;;;;;;;2.50;1.05;;;12.00;99.90;;;;;;5094706;28;20027;-45
2024/01/05 04:37:30;;;;;;;2.22;1.20;;;12.10;99.90;;;;;;5094615;28;20359;-44
2024/01/05 04:39:56;;;;;;;2.75;1.10;;;12.10;99.90;;;;;;5094070;28;20070;-44
2024/01/05 04:42:22;;;;;;;2.70;1.10;;;12.00;99.90;;;;;;5094406;28;20024;-45
2024/01/05 04:44:49;;;;;;;2.50;1.20;;;12.10;99.90;;;;;;5094885;28;20032;-44
2024/01/05 04:47:15;;;;;;;2.13;1.05;;;12.00;99.90;;;;;;5093735;28;20099;-45
2024/01/05 04:49:41;;;;;;;3.20;1.10;;;12.00;99.90;;;;;;5093430;28;20024;-45
2024/01/05 04:52:07;;;;;;;1.70;1.10;;;12.00;99.90;;;;;;5093880;28;20039;-45
2024/01/05 04:54:32;;;;;;;2.83;1.10;;;12.00;99.90;;;;;;5093867;28;20027;-45
2024/01/05 04:56:58;;;;;;;2.03;0.90;;;12.00;99.90;;;;;;5094890;28;20378;-45
2024/01/05 04:59:25;;;;;;;2.03;1.15;;;12.00;99.90;;;;;;5092303;28;20349;-45
2024/01/05 05:01:51;;;;;;;2.20;0.93;;;12.00;99.90;;;;;;5094722;28;20039;-45
2024/01/05 05:04:19;;;;;;;2.20;1.00;;;12.00;99.90;;;;;;5094128;28;20024;-44
2024/01/05 05:06:46;;;;;;;2.95;1.15;;;12.00;99.90;;;;;;5094103;28;20036;-45
2024/01/05 05:09:12;;;;;;;2.83;1.13;;;12.00;99.90;;;;;;5093044;28;20516;-45
2024/01/05 05:11:41;;;;;;;2.45;0.98;;;12.00;99.90;;;;;;5094541;28;20052;-44
2024/01/05 05:14:06;;;;;;;1.75;0.88;;;12.00;99.90;;;;;;5093260;28;20020;-45
2024/01/05 05:16:35;;;;;;;2.38;1.10;;;12.00;99.90;;;;;;5093816;28;20107;-42
2024/01/05 05:19:00;;;;;;;1.92;0.98;;;12.00;99.90;;;;;;5094052;28;20020;-45
2024/01/05 05:21:26;;;;;;;2.20;0.90;;;12.00;99.90;;;;;;5092839;28;20453;-45
2024/01/05 05:23:52;;;;;;;2.70;1.00;;;12.00;99.90;;;;;;5093149;28;20130;-45
2024/01/05 05:26:18;;;;;;;2.80;1.08;;;11.90;99.90;;;;;;5092664;28;20103;-45
2024/01/05 05:28:43;;;;;;;3.03;1.33;;;12.00;99.90;;;;;;5092655;28;20040;-45
2024/01/05 05:31:09;;;;;;;2.00;1.02;;;12.00;99.90;;;;;;5093671;28;20028;-44
2024/01/05 05:33:35;;;;;;;1.33;0.80;;;12.00;99.90;;;;;;5094148;28;20024;-45
2024/01/05 05:36:01;;;;;;;1.83;0.90;;;11.90;99.90;;;;;;5093086;28;20074;-44
2024/01/05 05:38:26;;;;;;;1.98;1.08;;;12.00;99.90;;;;;;5092475;28;20047;-45
2024/01/05 05:40:52;;;;;;;2.33;1.08;;;11.90;99.90;;;;;;5093056;28;20643;-44
2024/01/05 05:43:17;;;;;;;2.22;0.90;;;12.00;99.90;;;;;;5092670;28;20059;-45
2024/01/05 05:45:43;;;;;;;2.28;1.00;;;11.90;99.90;;;;;;5092456;28;20020;-45
2024/01/05 05:48:09;;;;;;;1.95;0.75;;;11.90;99.90;;;;;;5093362;28;20166;-45
2024/01/05 05:50:34;;;;;;;1.55;0.65;;;12.00;99.90;;;;;;5092326;28;20020;-45
2024/01/05 05:53:00;;;;;;;1.33;0.88;;;12.00;99.90;;;;;;5092569;28;20028;-45
2024/01/05 05:55:25;;;;;;;1.55;0.88;;;11.90;99.90;;;;;;5092652;28;20496;-45
2024/01/05 05:57:51;;;;;;;1.88;0.85;;;12.00;99.90;;;;;;5092509;28;20482;-45
2024/01/05 06:00:17;;;;;;;1.60;0.85;;;11.90;99.90;;;;;;5093423;28;20052;-45
2024/01/05 06:02:42;;;;;;;1.02;0.80;;;11.90;99.90;;;;;;5093223;28;20559;-45
2024/01/05 06:05:09;;;;;;;2.25;0.80;;;12.00;99.90;;;;;;5092726;28;20110;-45
2024/01/05 06:07:35;;;;;;;3.28;0.80;;;11.90;99.90;;;;;;5092874;28;20024;-45
2024/01/05 06:10:01;;;;;;;2.45;0.90;;;11.90;99.90;;;;;;5091958;28;20072;-45
2024/01/05 06:12:26;;;;;;;1.83;0.90;;;11.90;99.90;;;;;;5092854;28;20024;-44
2024/01/05 06:14:52;;;;;;;1.83;0.82;;;11.90;99.90;;;;;;5091929;28;20029;-45
2024/01/05 06:17:18;;;;;;;1.83;0.70;;;12.00;99.90;;;;;;5092175;28;20107;-45
2024/01/05 06:19:44;;;;;;;1.85;0.80;;;11.90;99.90;;;;;;5091971;28;20024;-45
2024/01/05 06:22:10;;;;;;;1.85;0.77;;;11.90;99.90;;;;;;5091708;28;20543;-44
2024/01/05 06:24:36;;;;;;;1.58;0.85;;;11.90;99.90;;;;;;5092399;28;20044;-43
2024/01/05 06:27:02;;;;;;;2.28;0.90;;;11.90;99.90;;;;;;5091832;28;20540;-45
2024/01/05 06:29:27;;;;;;;2.22;0.90;;;11.90;99.90;;;;;;5092974;28;20031;-45
2024/01/05 06:31:53;;;;;;;1.48;0.80;;;11.90;99.90;;;;;;5092574;28;20111;-45
2024/01/05 06:34:19;;;;;;;2.40;0.82;;;11.90;99.90;;;;;;5092119;28;20020;-45
2024/01/05 06:36:44;;;;;;;1.95;0.90;;;11.90;99.90;;;;;;5091480;28;20604;-44
2024/01/05 06:39:10;;;;;;;1.13;0.75;;;11.90;99.90;;;;;;5091440;28;20024;-46
2024/01/05 06:41:36;;;;;;;1.85;0.80;;;11.90;99.90;;;;;;5092266;28;20032;-44
2024/01/05 06:44:02;;;;;;;2.35;1.00;;;11.90;99.90;;;;;;5092866;28;20066;-45
2024/01/05 06:46:28;;;;;;;2.63;1.02;;;11.90;99.90;;;;;;5092830;28;20081;-45
2024/01/05 06:48:56;;;;;;;2.28;0.90;;;11.90;99.90;;;;;;5092951;28;20033;-43
2024/01/05 06:51:23;;;;;;;3.13;1.10;;;11.90;99.90;;;;;;5092754;28;20073;-43
2024/01/05 06:53:49;;;;;;;2.13;1.00;;;11.90;99.90;;;;;;5092754;28;20016;-45
2024/01/05 06:56:18;;;;;;;3.85;1.05;;;11.90;99.90;;;;;;5092566;28;20116;-44
2024/01/05 06:58:44;;;;;;;2.35;1.00;;;11.90;99.90;;;;;;5092147;28;20543;-45
2024/01/05 07:01:09;;;;;;;2.25;1.08;;;11.90;99.90;;;;;;5091898;28;20028;-45
2024/01/05 07:03:35;;;;;;;1.35;0.85;;;11.90;99.90;;;;;;5092146;28;20077;-44
2024/01/05 07:06:01;;;;;;;1.98;1.00;;;11.90;99.90;;;;;;5093044;28;20541;-45
2024/01/05 07:08:27;;;;;;;2.58;1.10;;;11.90;99.90;;;;;;5092512;28;20028;-44
2024/01/05 07:10:52;;;;;;;2.33;1.20;;;11.90;99.90;;;;;;5091140;28;20024;-43
2024/01/05 07:13:18;;;;;;;3.25;0.90;;;11.90;99.90;;;;;;5091568;28;20028;-45
2024/01/05 07:15:44;;;;;;;1.83;1.00;;;11.90;99.90;;;;;;5093164;28;20028;-43
2024/01/05 07:18:09;;;;;;;1.92;0.93;;;12.00;99.90;;;;;;5092316;28;20079;-43
2024/01/05 07:20:35;;;;;;;1.23;0.75;;;12.00;99.90;;;;;;5091034;28;20055;-45
2024/01/05 07:23:01;;;;;;;1.98;1.10;;;12.00;99.90;;;;;;5093366;28;20089;-44
2024/01/05 07:25:26;;;;;;;1.55;1.00;;;12.10;99.90;;;;;;5095142;28;20032;-45
2024/01/05 07:27:52;;;;;;;1.52;0.90;;;12.20;99.90;;;;;;5095834;28;20078;-45
2024/01/05 07:30:17;;;;;;;1.85;0.85;;;12.20;99.90;;;;;;5096944;28;20035;-45
2024/01/05 07:32:44;;;;;;;1.85;1.13;;;12.20;99.90;;;;;;5095555;28;20024;-45
2024/01/05 07:35:11;;;;;;;1.92;1.10;;;12.30;99.90;;;;;;5096644;28;20020;-46
2024/01/05 07:37:37;;;;;;;1.88;0.90;;;12.30;99.90;;;;;;5096177;28;20499;-44
2024/01/05 07:40:11;;;;;;;1.88;0.90;;;12.40;99.90;;;;;;5095892;28;20020;-45
2024/01/05 07:42:37;;;;;;;3.58;1.20;;;12.40;99.90;;;;;;5095970;28;20028;-45
2024/01/05 07:45:04;;;;;;;1.55;0.80;;;12.40;99.90;;;;;;5095940;28;20374;-45
2024/01/05 07:47:30;;;;;;;1.45;0.82;;;12.50;99.90;;;;;;5095125;28;20028;-45
2024/01/05 07:49:55;;;;;;;2.65;1.30;;;12.60;99.90;;;;;;5095091;28;20024;-45
2024/01/05 07:52:21;;;;;;;2.55;1.45;;;12.60;99.90;;;;;;5094740;28;20028;-45
2024/01/05 07:54:47;;;;;;;3.40;1.50;;;12.60;99.90;;;;;;5095261;28;20026;-45
2024/01/05 07:57:12;;;;;;;3.63;1.40;;;12.70;99.90;;;;;;5095346;28;20025;-44
2024/01/05 07:59:38;;;;;;;1.63;1.10;;;12.70;99.90;;;;;;5094414;28;20020;-45
2024/01/05 08:02:04;;;;;;;3.35;1.40;;;12.70;99.90;;;;;;5094797;28;20365;-45
2024/01/05 08:04:30;;;;;;;2.60;1.20;;;12.80;99.90;;;;;;5094992;28;20028;-45
2024/01/05 08:06:55;;;;;;;2.53;1.20;;;12.80;99.90;;;;;;5095629;28;20027;-45
2024/01/05 08:09:21;;;;;;;2.00;1.27;;;12.80;99.90;;;;;;5094988;28;20035;-45
2024/01/05 08:11:47;;;;;;;3.17;1.30;;;12.90;99.90;;;;;;5095129;28;20516;-44
2024/01/05 08:14:13;;;;;;;2.22;1.27;;;12.90;99.90;;;;;;5094837;28;20028;-44
2024/01/05 08:16:38;;;;;;;2.40;1.17;;;12.90;99.90;;;;;;5094952;28;20048;-45
2024/01/05 08:19:04;;;;;;;3.30;1.45;;;12.90;99.90;;;;;;5094979;28;20103;-43
2024/01/05 08:21:30;;;;;;;4.88;1.65;;;13.00;99.90;;;;;;5094912;28;20486;-45
2024/01/05 08:23:56;;;;;;;4.20;1.63;;;13.00;99.90;;;;;;5094502;28;20545;-45
2024/01/05 08:26:21;;;;;;;3.10;1.67;;;13.00;99.90;;;;;;5093954;28;20020;-45
2024/01/05 08:28:47;;;;;;;2.83;1.52;;;13.10;99.90;;;;;;5094221;28;20024;-44
2024/01/05 08:31:13;;;;;;;2.42;1.50;;;13.10;99.90;;;;;;5094040;28;20024;-45
2024/01/05 08:33:39;;;;;;;3.15;1.80;;;13.10;99.90;;;;;;5092497;28;20062;-45
2024/01/05 08:36:05;;;;;;;3.10;1.55;;;13.20;99.90;;;;;;5093603;28;20020;-45
2024/01/05 08:38:30;;;;;;;2.80;1.48;;;13.20;99.90;;;;;;5094319;28;20386;-44
2024/01/05 08:40:57;;;;;;;2.40;1.42;;;13.20;99.90;;;;;;5094334;28;20115;-45
2024/01/05 08:43:23;;;;;;;3.38;1.70;;;13.30;99.90;;;;;;5094776;28;20161;-44
2024/01/05 08:45:48;;;;;;;2.35;1.40;;;13.30;99.90;;;;;;5093928;28;20044;-45
2024/01/05 08:48:17;;;;;;;6.75;1.65;;;13.40;99.90;;;;;;5094303;28;20016;-43
2024/01/05 08:50:43;;;;;;;2.75;1.35;;;13.40;99.90;;;;;;5094140;28;20842;-45
2024/01/05 08:53:09;;;;;;;2.15;1.40;;;13.40;99.90;;;;;;5084678;28;20096;-45
2024/01/05 08:55:35;;;;;;;2.05;1.42;;;13.50;99.90;;;;;;5075339;28;20120;-45
2024/01/05 08:58:02;;;;;;;2.63;1.48;;;13.50;99.90;;;;;;5073099;28;20021;-45
2024/01/05 09:00:28;;;;;;;2.70;1.60;;;13.50;99.90;;;;;;5073674;28;20450;-45
2024/01/05 09:02:54;;;;;;;2.28;1.30;;;13.60;99.90;;;;;;5073344;28;20061;-45
2024/01/05 09:05:19;;;;;;;2.85;1.80;;;13.60;99.90;;;;;;5072879;28;20029;-45
2024/01/05 09:07:45;;;;;;;1.70;1.27;;;13.70;99.90;;;;;;5073460;28;20031;-44
2024/01/05 09:10:11;;;;;;;3.08;1.50;;;13.70;99.90;;;;;;5073398;28;20031;-45
2024/01/05 09:12:37;;;;;;;3.05;1.58;;;13.80;99.90;;;;;;5072717;28;20024;-45
2024/01/05 09:15:03;;;;;;;2.20;1.20;;;13.80;99.90;;;;;;5072816;28;20091;-45
2024/01/05 09:17:29;;;;;;;2.85;1.50;;;13.80;99.90;;;;;;5073836;28;20059;-45
2024/01/05 09:19:54;;;;;;;2.22;1.20;;;13.90;99.90;;;;;;5074491;28;20024;-45
2024/01/05 09:22:20;;;;;;;3.20;1.58;;;13.90;99.90;;;;;;5074042;28;20025;-44
2024/01/05 09:24:46;;;;;;;2.83;1.45;;;13.90;99.90;;;;;;5073104;28;20082;-45
2024/01/05 09:27:11;;;;;;;2.13;1.48;;;14.00;99.90;;;;;;5074214;28;20063;-45
2024/01/05 09:29:37;;;;;;;2.92;1.50;;;14.00;99.90;;;;;;5072693;28;20098;-44
2024/01/05 09:32:03;;;;;;;2.78;1.80;;;14.00;99.90;;;;;;5072958;28;20421;-43
2024/01/05 09:34:30;;;;;;;2.63;1.48;;;14.00;99.90;;;;;;5073247;28;20033;-43
2024/01/05 09:36:55;;;;;;;3.53;1.60;;;14.00;99.90;;;;;;5073329;28;20509;-44
2024/01/05 09:39:21;;;;;;;3.80;1.50;;;14.10;99.90;;;;;;5073385;28;20060;-42
2024/01/05 09:41:47;;;;;;;3.38;1.60;;;14.10;99.90;;;;;;5073306;28;20107;-42
2024/01/05 09:44:13;;;;;;;2.00;1.42;;;14.10;99.90;;;;;;5073953;28;20032;-45
2024/01/05 09:46:40;;;;;;;3.10;1.73;;;14.10;99.90;;;;;;5073029;28;20020;-45
2024/01/05 09:49:09;;;;;;;3.25;1.63;;;14.10;99.90;;;;;;5073131;28;20053;-45
2024/01/05 09:51:35;;;;;;;4.30;1.92;;;14.10;99.90;;;;;;5073017;28;20066;-44
2024/01/05 09:54:01;;;;;;;3.83;1.95;;;14.20;99.90;;;;;;5073233;28;20043;-45
2024/01/05 09:56:28;;;;;;;2.38;1.45;;;14.20;99.90;;;;;;5073292;28;20424;-44
2024/01/05 09:58:55;;;;;;;1.70;1.30;;;14.20;99.90;;;;;;5073092;28;20039;-45
2024/01/05 10:01:32;;;;;;;2.80;1.50;;;14.20;99.90;;;;;;5072935;28;20029;-45
2024/01/05 10:04:04;;;;;;;3.72;1.90;;;14.30;99.90;;;;;;5072188;28;20391;-45
2024/01/05 10:06:30;;;;;;;2.83;1.60;;;14.30;99.90;;;;;;5071901;28;20055;-44
2024/01/05 10:09:00;;;;;;;3.47;1.83;;;14.30;99.90;;;;;;5072564;28;20039;-45
2024/01/05 10:11:31;;;;;;;2.75;1.73;;;14.40;99.90;;;;;;5072860;28;20104;-43
2024/01/05 10:14:01;;;;;;;3.53;1.60;;;14.40;99.90;;;;;;5072093;28;20021;-45
2024/01/05 10:16:34;;;;;;;3.13;1.65;;;14.40;99.90;;;;;;5072827;28;20025;-45
2024/01/05 10:19:19;;;;;;;3.35;1.70;;;14.40;99.90;;;;;;5072249;28;20036;-45
2024/01/05 10:21:48;;;;;;;2.45;1.42;;;14.50;99.90;;;;;;5072602;28;20067;-44
2024/01/05 10:24:26;;;;;;;7.93;1.98;;;14.50;99.90;;;;;;5072174;28;20036;-45
2024/01/05 10:27:09;;;;;;;4.30;2.20;;;14.50;99.90;;;;;;5073422;28;20052;-42
2024/01/05 10:29:37;;;;;;;7.85;2.42;;;14.60;99.50;;;;;;5071867;28;20024;-45
2024/01/05 10:32:10;;;;;;;6.10;2.20;;;14.60;99.00;;;;;;5071362;28;20063;-45
2024/01/05 10:34:36;;;;;;;4.10;2.08;;;14.60;98.80;;;;;;5071300;28;20367;-45
2024/01/05 10:37:03;;;;;;;5.47;2.25;;;14.60;98.70;;;;;;5071319;28;20032;-45
2024/01/05 10:39:29;;;;;;;5.53;2.35;;;14.70;98.70;;;;;;5072341;28;20021;-44
2024/01/05 10:41:55;;;;;;;5.43;2.00;;;14.70;98.70;;;;;;5071812;28;20035;-44
2024/01/05 10:44:21;;;;;;;5.07;2.20;;;14.70;98.70;;;;;;5071527;28;20027;-44
2024/01/05 10:46:48;;;;;;;6.18;2.17;;;14.70;98.70;;;;;;5072876;28;20020;-44
2024/01/05 10:49:13;;;;;;;5.57;1.95;;;14.70;98.80;;;;;;5086797;28;20034;-43
2024/01/05 10:51:41;;;;;;;4.28;1.92;;;14.80;98.70;;;;;;5071489;28;20036;-44
2024/01/05 10:54:07;;;;;;;6.07;2.08;;;14.80;98.70;;;;;;5071980;28;20017;-44
2024/01/05 10:56:34;;;;;;;4.35;1.95;;;14.80;98.70;;;;;;5071065;28;20025;-45
2024/01/05 10:59:00;;;;;;;4.72;1.92;;;14.80;98.60;;;;;;5071758;28;20102;-45
2024/01/05 11:01:29;;;;;;;4.22;2.10;;;14.90;98.60;;;;;;5071741;28;20083;-42
2024/01/05 11:03:55;;;;;;;4.40;2.10;;;14.90;98.60;;;;;;5071732;28;20378;-45
2024/01/05 11:06:22;;;;;;;4.07;1.83;;;14.90;98.60;;;;;;5071960;28;20427;-44
2024/01/05 11:08:56;;;;;;;4.45;1.85;;;15.00;98.60;;;;;;5072441;28;20055;-42
2024/01/05 11:11:59;;;;;;;5.45;1.70;;;15.00;98.60;;;;;;5071689;28;20034;-42
2024/01/05 11:14:28;;;;;;;4.93;1.95;;;15.00;98.60;;;;;;5070907;28;20021;-44
2024/01/05 11:17:33;;;;;;;5.10;1.70;;;15.00;98.60;;;;;;5072575;28;20017;-44
2024/01/05 11:20:02;;;;;;;4.85;1.80;;;15.00;98.50;;;;;;5072074;28;20020;-45
2024/01/05 11:22:34;;;;;;;4.32;1.70;;;15.00;98.50;;;;;;5071624;28;20035;-44
2024/01/05 11:25:02;;;;;;;5.97;1.60;;;15.10;98.50;;;;;;5087007;28;20043;-40
2024/01/05 11:27:35;;;;;;;2.80;1.23;;;15.10;98.50;;;;;;5071077;28;20074;-44
2024/01/05 11:30:04;;;;;;;3.63;1.95;;;15.10;98.80;;;;;;5071585;28;20029;-44
2024/01/05 11:32:34;;;;;;;3.38;1.60;;;15.10;98.40;;;;;;5072458;28;20552;-44
2024/01/05 11:35:02;;;;;;;4.20;1.85;;;15.10;98.40;;;;;;5072047;28;20021;-44
2024/01/05 11:37:31;;;;;;;3.40;1.73;;;15.10;98.40;;;;;;5069817;28;20029;-44
2024/01/05 11:40:00;;;;;;;4.78;1.60;;;15.10;98.30;;;;;;5070933;28;20020;-44
2024/01/05 11:42:29;;;;;;;2.95;1.45;;;15.10;98.30;;;;;;5071323;28;20021;-44
2024/01/05 11:44:57;;;;;;;2.83;1.50;;;15.20;98.30;;;;;;5071076;28;20036;-44
2024/01/05 11:47:45;;;;;;;5.15;1.65;;;15.20;98.30;;;;;;5071643;28;20459;-45
2024/01/05 11:50:32;;;;;;;2.92;1.50;;;15.20;98.30;;;;;;5071563;28;20024;-41
2024/01/05 11:53:15;;;;;;;2.75;1.50;;;15.20;98.20;;;;;;5070753;28;20028;-44
2024/01/05 11:55:50;;;;;;;5.10;1.80;;;15.20;98.20;;;;;;5071765;28;20556;-44
2024/01/05 11:58:21;;;;;;;2.63;1.70;;;15.20;98.20;;;;;;5069361;28;20061;-44
2024/01/05 12:00:48;;;;;;;4.25;1.73;;;15.20;98.20;;;;;;5070552;28;20021;-44
2024/01/05 12:03:15;;;;;;;2.80;1.58;;;15.20;98.10;;;;;;5070616;28;20024;-42
2024/01/05 12:05:41;;;;;;;3.20;1.60;;;15.30;98.10;;;;;;5070866;28;20103;-42
2024/01/05 12:08:11;;;;;;;3.60;1.77;;;15.30;98.10;;;;;;5071659;28;20021;-44
2024/01/05 12:10:39;;;;;;;2.30;1.30;;;15.30;98.50;;;;;;5074192;28;20500;-44
2024/01/05 12:13:05;;;;;;;2.15;1.40;;;15.20;98.10;;;;;;5074555;28;20025;-44
2024/01/05 12:15:32;;;;;;;2.45;1.42;;;15.20;98.10;;;;;;5074930;28;20017;-44
2024/01/05 12:18:04;;;;;;;5.22;1.50;;;15.30;98.10;;;;;;5074194;28;20017;-44
2024/01/05 12:20:30;;;;;;;2.70;1.23;;;15.30;98.10;;;;;;5074112;28;20378;-44
2024/01/05 12:22:56;;;;;;;2.55;1.60;;;15.30;98.00;;;;;;5074512;28;20029;-42
2024/01/05 12:25:22;;;;;;;2.25;1.50;;;15.30;98.10;;;;;;5074820;28;20445;-44
2024/01/05 12:27:48;;;;;;;3.95;1.50;;;15.30;98.00;;;;;;5075030;28;20483;-41
2024/01/05 12:30:14;;;;;;;3.00;1.50;;;15.30;98.00;;;;;;5074264;28;20113;-44
2024/01/05 12:32:40;;;;;;;3.40;1.50;;;15.30;98.00;;;;;;5074780;28;20115;-44
2024/01/05 12:35:06;;;;;;;3.30;1.45;;;15.30;98.00;;;;;;5074563;28;20203;-43
2024/01/05 12:37:32;;;;;;;2.13;1.40;;;15.30;98.00;;;;;;5074492;28;20047;-42
2024/01/05 12:40:12;;;;;;;3.80;1.65;;;15.30;98.00;;;;;;5074876;28;20533;-44
2024/01/05 12:42:38;;;;;;;1.98;1.23;;;15.40;98.00;;;;;;5074585;28;20099;-44
2024/01/05 12:45:08;;;;;;;2.78;1.55;;;15.30;97.90;;;;;;5073898;28;20503;-43
2024/01/05 12:47:34;;;;;;;2.38;1.42;;;15.40;98.00;;;;;;5073570;28;20071;-44